Time;durP1;ratioP1;P1;durP2;ratioP2;P2;SDS_P1;SDS_P2;PMS_P1;PMS_P2;Temp;Humidity;BMP_temperature;BMP_pressure;BME280_temperature;BME280_humidity;BME280_pressure;Samples;Min_cycle;Max_cycle;Signal;HPM_P1;HPM_P2
2022/07/24 00:01:37;;;;;;;6.55;3.72;;;20.10;97.10;;;;;;5054985;28;20097;-69
2022/07/24 00:04:04;;;;;;;8.02;3.63;;;20.10;97.10;;;;;;5054807;28;20086;-69
2022/07/24 00:06:30;;;;;;;7.30;4.10;;;20.10;97.20;;;;;;5054862;28;20025;-69
2022/07/24 00:08:56;;;;;;;8.13;3.90;;;20.10;97.30;;;;;;5054772;28;20077;-69
2022/07/24 00:11:23;;;;;;;4.70;3.50;;;20.10;97.30;;;;;;5055800;28;20052;-71
2022/07/24 00:13:49;;;;;;;5.68;3.83;;;20.10;97.30;;;;;;5054835;28;20033;-68
2022/07/24 00:16:15;;;;;;;6.32;3.15;;;20.00;97.30;;;;;;5077386;22;20098;-85
2022/07/24 00:18:41;;;;;;;7.10;3.85;;;20.00;97.40;;;;;;5052072;28;20033;-85
2022/07/24 00:21:07;;;;;;;5.15;3.70;;;20.00;97.40;;;;;;5053688;28;20033;-86
2022/07/24 00:23:33;;;;;;;6.13;3.97;;;20.00;97.40;;;;;;5053647;28;20055;-85
2022/07/24 00:25:59;;;;;;;7.50;3.80;;;20.00;97.30;;;;;;5053484;28;20115;-85
2022/07/24 00:28:24;;;;;;;4.82;3.30;;;20.00;97.40;;;;;;5052304;28;20037;-85
2022/07/24 00:30:50;;;;;;;5.13;3.35;;;19.90;97.40;;;;;;5052240;28;20032;-85
2022/07/24 00:33:16;;;;;;;5.90;3.50;;;19.90;97.50;;;;;;5052015;28;20519;-85
2022/07/24 00:35:43;;;;;;;5.97;3.83;;;19.90;97.60;;;;;;5051787;28;20397;-86
2022/07/24 00:38:09;;;;;;;5.03;3.63;;;19.90;97.70;;;;;;5052032;28;20389;-85
2022/07/24 00:40:36;;;;;;;5.90;3.97;;;19.90;97.70;;;;;;5053083;28;20025;-85
2022/07/24 00:43:03;;;;;;;5.75;3.65;;;19.90;97.80;;;;;;5053074;28;20052;-86
2022/07/24 00:45:29;;;;;;;4.95;3.47;;;19.90;97.80;;;;;;5052917;28;20443;-85
2022/07/24 00:47:54;;;;;;;5.85;3.63;;;19.80;97.80;;;;;;5051403;28;20024;-86
2022/07/24 00:50:20;;;;;;;6.00;3.42;;;19.80;97.90;;;;;;5052552;28;20366;-85
2022/07/24 00:52:46;;;;;;;6.30;3.60;;;19.80;98.00;;;;;;5052834;28;20041;-85
2022/07/24 00:55:13;;;;;;;5.78;3.70;;;19.80;98.10;;;;;;5052671;28;20087;-85
2022/07/24 00:57:39;;;;;;;5.88;3.75;;;19.80;98.20;;;;;;5052598;28;20033;-85
2022/07/24 01:00:06;;;;;;;8.30;3.80;;;19.80;98.40;;;;;;5051109;28;20060;-85
2022/07/24 01:02:33;;;;;;;5.68;3.97;;;19.70;98.40;;;;;;5052504;28;20469;-85
2022/07/24 01:04:59;;;;;;;6.45;3.92;;;19.70;98.50;;;;;;5051291;28;20025;-85
2022/07/24 01:07:25;;;;;;;7.03;3.83;;;19.70;98.70;;;;;;5052409;28;20025;-85
2022/07/24 01:09:52;;;;;;;6.03;3.70;;;19.70;98.80;;;;;;5034251;28;20044;-85
2022/07/24 01:12:18;;;;;;;7.15;3.97;;;19.70;98.80;;;;;;5052268;28;20481;-85
2022/07/24 01:14:44;;;;;;;5.10;3.92;;;19.70;99.00;;;;;;5051972;28;20032;-85
2022/07/24 01:17:11;;;;;;;6.32;4.10;;;19.80;99.40;;;;;;5051896;28;20094;-85
2022/07/24 01:19:37;;;;;;;5.82;3.38;;;19.80;99.70;;;;;;5051963;28;20029;-85
2022/07/24 01:22:03;;;;;;;6.63;4.03;;;19.80;99.80;;;;;;5050820;28;20083;-85
2022/07/24 01:24:31;;;;;;;6.93;4.30;;;19.80;99.80;;;;;;5050738;28;20485;-85
2022/07/24 01:26:56;;;;;;;6.70;4.10;;;19.80;99.80;;;;;;5050681;28;20036;-85
2022/07/24 01:29:22;;;;;;;7.35;4.55;;;19.80;99.80;;;;;;5050442;28;20497;-85
2022/07/24 01:31:48;;;;;;;5.45;4.10;;;19.80;99.80;;;;;;5051004;28;20106;-85
2022/07/24 01:34:14;;;;;;;5.32;3.92;;;19.80;99.80;;;;;;5051883;28;20515;-85
2022/07/24 01:36:40;;;;;;;6.68;4.53;;;19.70;99.70;;;;;;5051843;28;20025;-85
2022/07/24 01:39:05;;;;;;;7.10;4.40;;;19.60;99.70;;;;;;5052022;28;20025;-85
2022/07/24 01:41:31;;;;;;;6.32;4.50;;;19.60;99.80;;;;;;5050550;28;20516;-86
2022/07/24 01:43:57;;;;;;;6.95;4.53;;;19.50;99.80;;;;;;5050357;28;20035;-85
2022/07/24 01:46:23;;;;;;;5.72;4.15;;;19.50;99.80;;;;;;5051598;28;20535;-85
2022/07/24 01:48:49;;;;;;;7.50;4.32;;;19.50;99.90;;;;;;5051444;28;20100;-85
2022/07/24 01:51:15;;;;;;;6.15;4.03;;;19.50;99.90;;;;;;5050292;28;20048;-85
2022/07/24 01:53:41;;;;;;;5.97;3.90;;;19.40;99.90;;;;;;5051563;28;20469;-85
2022/07/24 01:56:07;;;;;;;7.03;4.40;;;19.40;99.90;;;;;;5049929;28;20025;-85
2022/07/24 01:58:33;;;;;;;7.75;4.00;;;19.40;99.90;;;;;;5051046;28;20448;-85
2022/07/24 02:00:59;;;;;;;6.18;4.45;;;19.30;99.90;;;;;;5050309;28;20029;-85
2022/07/24 02:03:25;;;;;;;6.85;4.22;;;19.30;99.90;;;;;;5050237;28;20025;-85
2022/07/24 02:05:50;;;;;;;8.70;4.28;;;19.30;99.90;;;;;;5051065;28;20112;-85
2022/07/24 02:08:16;;;;;;;6.70;4.30;;;19.20;99.90;;;;;;5051285;28;20115;-85
2022/07/24 02:10:42;;;;;;;5.93;4.63;;;19.20;99.90;;;;;;5051113;28;20055;-85
2022/07/24 02:13:08;;;;;;;6.78;3.88;;;19.20;99.90;;;;;;5049897;28;20036;-85
2022/07/24 02:15:34;;;;;;;5.22;3.90;;;19.20;99.90;;;;;;5051020;28;20036;-85
2022/07/24 02:18:01;;;;;;;6.95;4.20;;;19.10;99.90;;;;;;5050844;28;20119;-85
2022/07/24 02:20:28;;;;;;;5.07;4.00;;;19.20;99.90;;;;;;5050824;28;20021;-85
2022/07/24 02:22:54;;;;;;;4.85;3.95;;;19.10;99.90;;;;;;5049819;28;20485;-85
2022/07/24 02:25:20;;;;;;;7.78;4.60;;;19.10;99.90;;;;;;5049734;28;20024;-85
2022/07/24 02:27:46;;;;;;;6.75;4.38;;;19.10;99.90;;;;;;5049476;28;20029;-85
2022/07/24 02:30:19;;;;;;;6.15;4.00;;;19.10;99.90;;;;;;5050700;28;20460;-85
2022/07/24 02:32:44;;;;;;;6.28;4.55;;;19.10;99.90;;;;;;5049693;28;20473;-85
2022/07/24 02:35:11;;;;;;;9.55;4.93;;;19.00;99.90;;;;;;5050872;28;20120;-85
2022/07/24 02:37:42;;;;;;;5.93;4.10;;;19.00;99.90;;;;;;5050554;28;20040;-85
2022/07/24 02:40:09;;;;;;;4.97;3.78;;;19.00;99.90;;;;;;5050598;28;20029;-85
2022/07/24 02:42:36;;;;;;;6.63;4.00;;;19.00;99.90;;;;;;5051210;28;20418;-85
2022/07/24 02:45:02;;;;;;;7.55;4.45;;;19.00;99.90;;;;;;5032987;28;20546;-85
2022/07/24 02:47:28;;;;;;;8.65;4.13;;;19.00;99.90;;;;;;5049396;28;20261;-85
2022/07/24 02:49:54;;;;;;;5.25;3.88;;;19.00;99.90;;;;;;5049195;28;20128;-85
2022/07/24 02:52:20;;;;;;;5.97;4.18;;;19.00;99.90;;;;;;5050664;28;20033;-85
2022/07/24 02:54:45;;;;;;;7.90;4.55;;;19.00;99.90;;;;;;5055423;28;20107;-85
2022/07/24 02:57:11;;;;;;;5.80;4.30;;;19.00;99.90;;;;;;5055656;28;20501;-85
2022/07/24 02:59:37;;;;;;;6.60;4.63;;;19.00;99.90;;;;;;5056055;28;20032;-85
2022/07/24 03:02:03;;;;;;;6.28;4.53;;;18.90;99.90;;;;;;5057398;28;20029;-85
2022/07/24 03:04:28;;;;;;;8.85;4.90;;;18.90;99.90;;;;;;5039419;28;20027;-85
2022/07/24 03:06:54;;;;;;;6.40;3.60;;;19.00;99.90;;;;;;5057134;28;20036;-85
2022/07/24 03:09:20;;;;;;;8.88;4.47;;;19.00;99.90;;;;;;5056990;28;20033;-85
2022/07/24 03:11:46;;;;;;;6.07;3.97;;;19.00;99.90;;;;;;5055881;28;20033;-85
2022/07/24 03:14:11;;;;;;;5.03;3.80;;;19.10;99.90;;;;;;5055844;28;20048;-85
2022/07/24 03:16:37;;;;;;;4.93;4.07;;;19.10;99.90;;;;;;5057198;28;20493;-85
2022/07/24 03:19:03;;;;;;;5.13;3.83;;;19.10;99.90;;;;;;5057278;28;20469;-85
2022/07/24 03:21:29;;;;;;;5.93;4.18;;;19.10;99.90;;;;;;5055729;28;20029;-86
2022/07/24 03:23:55;;;;;;;7.70;4.38;;;19.20;99.90;;;;;;5057067;28;20075;-85
2022/07/24 03:26:21;;;;;;;5.22;4.07;;;19.20;99.90;;;;;;5055507;28;20492;-85
2022/07/24 03:28:46;;;;;;;6.18;3.97;;;19.20;99.90;;;;;;5055759;28;20033;-85
2022/07/24 03:31:12;;;;;;;4.78;3.63;;;19.20;99.90;;;;;;5057056;28;20025;-85
2022/07/24 03:33:38;;;;;;;6.60;4.05;;;19.30;99.90;;;;;;5055828;28;20029;-85
2022/07/24 03:36:04;;;;;;;6.03;4.13;;;19.20;99.90;;;;;;5056781;28;20036;-85
2022/07/24 03:38:30;;;;;;;5.50;4.10;;;19.20;99.90;;;;;;5056788;28;20508;-85
2022/07/24 03:40:55;;;;;;;5.35;3.85;;;19.10;99.90;;;;;;5055848;28;20029;-85
2022/07/24 03:43:21;;;;;;;5.15;3.75;;;19.10;99.90;;;;;;5057117;28;20465;-85
2022/07/24 03:45:47;;;;;;;6.97;4.30;;;19.10;99.90;;;;;;5056667;28;20044;-84
2022/07/24 03:48:13;;;;;;;5.35;4.25;;;19.10;99.90;;;;;;5057019;28;20288;-85
2022/07/24 03:50:39;;;;;;;5.38;3.65;;;19.00;99.90;;;;;;5055581;28;20060;-85
2022/07/24 03:53:04;;;;;;;7.25;4.00;;;19.00;99.90;;;;;;5038926;28;20086;-85
2022/07/24 03:55:30;;;;;;;5.30;4.38;;;19.00;99.90;;;;;;5056781;28;20036;-85
2022/07/24 03:57:56;;;;;;;8.40;4.47;;;19.00;99.90;;;;;;5056553;28;20033;-85
2022/07/24 04:00:22;;;;;;;6.65;4.13;;;19.00;99.90;;;;;;5055348;28;20082;-85
2022/07/24 04:02:47;;;;;;;5.80;4.45;;;19.00;99.90;;;;;;5056996;28;20021;-85
2022/07/24 04:05:13;;;;;;;7.03;4.30;;;18.90;99.90;;;;;;5054503;28;20029;-85
2022/07/24 04:07:39;;;;;;;7.13;4.40;;;18.90;99.90;;;;;;5052100;28;20055;-85
2022/07/24 04:10:07;;;;;;;6.97;4.53;;;18.90;99.90;;;;;;5052156;28;20036;-85
2022/07/24 04:12:34;;;;;;;7.10;4.25;;;18.90;99.90;;;;;;5053466;28;20111;-85
2022/07/24 04:14:59;;;;;;;5.97;4.18;;;18.90;99.90;;;;;;5035754;28;20037;-85
2022/07/24 04:17:25;;;;;;;7.97;4.50;;;18.90;99.90;;;;;;5051997;28;20029;-85
2022/07/24 04:19:51;;;;;;;5.18;3.97;;;18.90;99.90;;;;;;5052062;28;20049;-85
2022/07/24 04:22:17;;;;;;;6.13;4.35;;;18.90;99.90;;;;;;5053348;28;20480;-85
2022/07/24 04:24:43;;;;;;;7.05;3.88;;;18.90;99.90;;;;;;5053110;28;20075;-85
2022/07/24 04:27:08;;;;;;;5.32;4.05;;;18.90;99.90;;;;;;5053241;28;20028;-85
2022/07/24 04:29:34;;;;;;;5.88;4.25;;;18.90;99.90;;;;;;5035315;28;20393;-85
2022/07/24 04:32:00;;;;;;;6.32;4.60;;;18.90;99.90;;;;;;5053124;28;20154;-85
2022/07/24 04:34:26;;;;;;;7.25;4.55;;;19.00;99.90;;;;;;5053055;28;20040;-85
2022/07/24 04:36:52;;;;;;;6.13;4.10;;;19.00;99.90;;;;;;5051824;28;20504;-85
2022/07/24 04:39:17;;;;;;;7.03;4.30;;;19.00;99.90;;;;;;5034929;28;20029;-85
2022/07/24 04:41:43;;;;;;;5.43;4.40;;;19.00;99.90;;;;;;5035047;28;20027;-85
2022/07/24 04:44:09;;;;;;;5.95;4.50;;;19.00;99.90;;;;;;5052737;28;20036;-85
2022/07/24 04:46:35;;;;;;;7.13;4.82;;;19.00;99.90;;;;;;5052794;28;20025;-85
2022/07/24 04:49:01;;;;;;;8.75;4.40;;;19.00;99.90;;;;;;5052676;28;20100;-85
2022/07/24 04:51:26;;;;;;;7.30;4.70;;;19.00;99.90;;;;;;5052715;28;20039;-85
2022/07/24 04:53:52;;;;;;;5.45;4.40;;;19.00;99.90;;;;;;5052653;28;20037;-85
2022/07/24 04:56:19;;;;;;;5.53;4.28;;;19.00;99.90;;;;;;5052397;28;20036;-85
2022/07/24 04:58:46;;;;;;;5.82;4.70;;;19.00;99.90;;;;;;5052436;28;20436;-85
2022/07/24 05:01:12;;;;;;;5.57;4.75;;;19.10;99.90;;;;;;5051407;28;20422;-85
2022/07/24 05:03:37;;;;;;;5.43;4.10;;;19.10;99.90;;;;;;5034662;28;20112;-85
2022/07/24 05:06:03;;;;;;;5.65;4.18;;;19.10;99.90;;;;;;5052135;28;20382;-85
2022/07/24 05:08:29;;;;;;;6.70;4.25;;;19.20;99.90;;;;;;5051171;28;20067;-85
2022/07/24 05:10:55;;;;;;;6.72;4.43;;;19.20;99.90;;;;;;5052311;28;20029;-85
2022/07/24 05:13:21;;;;;;;6.80;4.18;;;19.30;99.90;;;;;;5052158;28;20043;-85
2022/07/24 05:15:46;;;;;;;8.18;4.70;;;19.30;99.90;;;;;;5050848;28;20052;-85
2022/07/24 05:18:12;;;;;;;7.53;4.65;;;19.40;99.90;;;;;;5034295;28;20025;-85
2022/07/24 05:20:38;;;;;;;5.97;4.38;;;19.50;99.90;;;;;;5050747;28;20025;-85
2022/07/24 05:23:04;;;;;;;7.80;4.40;;;19.50;99.90;;;;;;5050795;28;20524;-85
2022/07/24 05:25:29;;;;;;;6.88;4.47;;;19.60;99.90;;;;;;5052153;28;20036;-85
2022/07/24 05:27:55;;;;;;;5.80;4.55;;;19.60;99.90;;;;;;5050944;28;20385;-85
2022/07/24 05:30:21;;;;;;;7.13;4.80;;;19.70;99.90;;;;;;5051870;28;20485;-85
2022/07/24 05:32:47;;;;;;;8.57;5.63;;;19.80;99.90;;;;;;5051910;28;20114;-85
2022/07/24 05:35:12;;;;;;;7.65;4.82;;;19.80;99.80;;;;;;5050535;28;20112;-86
2022/07/24 05:37:38;;;;;;;7.35;4.60;;;19.80;99.70;;;;;;5050436;28;20389;-85
2022/07/24 05:40:05;;;;;;;9.50;5.07;;;19.90;99.60;;;;;;5050178;28;20025;-85
2022/07/24 05:42:30;;;;;;;7.93;4.85;;;19.80;99.70;;;;;;5051717;28;20043;-85
2022/07/24 05:44:56;;;;;;;6.20;4.75;;;19.90;99.70;;;;;;5051677;28;20048;-85
2022/07/24 05:47:22;;;;;;;7.03;4.72;;;19.90;99.70;;;;;;5050217;28;20063;-85
2022/07/24 05:49:48;;;;;;;6.05;5.05;;;19.90;99.60;;;;;;5051397;28;20029;-85
2022/07/24 05:52:13;;;;;;;7.88;4.93;;;19.90;99.60;;;;;;5051527;28;20560;-85
2022/07/24 05:54:39;;;;;;;10.18;5.40;;;20.00;99.60;;;;;;5051593;28;20061;-85
2022/07/24 05:57:05;;;;;;;7.35;5.28;;;20.00;99.40;;;;;;5051435;28;20082;-85
2022/07/24 05:59:31;;;;;;;6.88;4.95;;;20.00;99.30;;;;;;5051223;28;20029;-85
2022/07/24 06:01:56;;;;;;;6.88;5.43;;;20.10;99.40;;;;;;5051885;28;20025;-85
2022/07/24 06:04:22;;;;;;;8.32;5.68;;;20.10;99.50;;;;;;5051170;28;20029;-85
2022/07/24 06:06:48;;;;;;;8.20;5.60;;;20.10;99.50;;;;;;5051092;28;20024;-85
2022/07/24 06:09:14;;;;;;;8.25;5.50;;;20.20;99.50;;;;;;5049820;28;20035;-85
2022/07/24 06:11:40;;;;;;;6.85;5.43;;;20.20;99.50;;;;;;5051163;28;20037;-85
2022/07/24 06:14:05;;;;;;;7.13;5.00;;;20.30;99.60;;;;;;5051079;28;20029;-86
2022/07/24 06:16:31;;;;;;;7.75;5.43;;;20.30;99.60;;;;;;5064951;22;20512;-84
2022/07/24 06:18:57;;;;;;;10.05;5.90;;;20.30;99.60;;;;;;5049908;28;20120;-83
2022/07/24 06:21:23;;;;;;;7.05;5.38;;;20.40;99.80;;;;;;5048992;28;20123;-83
2022/07/24 06:23:48;;;;;;;8.40;5.32;;;20.40;99.90;;;;;;5048903;28;20029;-83
2022/07/24 06:26:14;;;;;;;6.57;4.80;;;20.40;99.90;;;;;;5050188;28;20029;-83
2022/07/24 06:28:40;;;;;;;8.32;5.55;;;20.40;99.90;;;;;;5049143;28;20474;-83
2022/07/24 06:31:06;;;;;;;10.25;5.38;;;20.40;99.90;;;;;;5050446;28;20035;-83
2022/07/24 06:33:31;;;;;;;8.52;5.10;;;20.50;99.90;;;;;;5050130;28;20025;-83
2022/07/24 06:35:58;;;;;;;7.68;5.47;;;20.50;99.90;;;;;;5049779;28;20112;-83
2022/07/24 06:38:24;;;;;;;8.70;5.43;;;20.50;99.80;;;;;;5049894;28;20435;-83
2022/07/24 06:40:50;;;;;;;7.70;5.60;;;20.60;99.80;;;;;;5049846;28;20032;-83
2022/07/24 06:43:16;;;;;;;6.57;4.90;;;20.60;99.70;;;;;;5049062;28;20112;-83
2022/07/24 06:45:43;;;;;;;8.52;5.65;;;20.60;99.60;;;;;;5049590;28;20029;-83
2022/07/24 06:48:09;;;;;;;6.20;4.60;;;20.60;99.70;;;;;;5048695;28;20091;-83
2022/07/24 06:50:35;;;;;;;10.13;5.47;;;20.70;99.80;;;;;;5049494;28;20033;-86
2022/07/24 06:53:00;;;;;;;5.88;5.00;;;20.70;99.90;;;;;;5031987;28;20037;-85
2022/07/24 06:55:26;;;;;;;7.60;5.13;;;20.70;99.70;;;;;;5049683;28;20036;-85
2022/07/24 06:57:52;;;;;;;6.90;5.50;;;20.80;99.50;;;;;;5031623;28;20036;-85
2022/07/24 07:00:18;;;;;;;7.28;5.13;;;20.80;99.30;;;;;;5049508;28;20025;-85
2022/07/24 07:02:45;;;;;;;7.47;5.00;;;20.90;99.30;;;;;;5049841;28;20052;-87
2022/07/24 07:05:11;;;;;;;5.90;5.03;;;20.90;99.10;;;;;;5049624;28;20040;-85
2022/07/24 07:07:38;;;;;;;5.38;4.63;;;20.90;99.00;;;;;;5049306;28;20032;-85
2022/07/24 07:10:05;;;;;;;5.88;4.75;;;21.00;99.00;;;;;;5049469;28;20486;-86
2022/07/24 07:12:31;;;;;;;7.30;4.75;;;21.00;99.00;;;;;;5049616;28;20040;-85
2022/07/24 07:14:59;;;;;;;8.38;5.10;;;21.00;99.10;;;;;;5009779;28;1134376;-85
2022/07/24 07:17:25;;;;;;;6.32;4.57;;;21.00;99.00;;;;;;5048971;28;20051;-85
2022/07/24 07:19:51;;;;;;;10.23;5.20;;;21.10;98.90;;;;;;5048889;28;20041;-86
2022/07/24 07:22:17;;;;;;;8.48;5.18;;;21.10;98.70;;;;;;5049136;28;20029;-85
2022/07/24 07:24:42;;;;;;;7.30;5.00;;;21.20;98.70;;;;;;5050586;28;20490;-85
2022/07/24 07:27:08;;;;;;;6.63;4.75;;;21.20;98.70;;;;;;5050170;28;20541;-86
2022/07/24 07:29:34;;;;;;;9.15;6.18;;;21.20;98.70;;;;;;5050097;28;20086;-87
2022/07/24 07:32:00;;;;;;;10.45;6.63;;;21.30;98.60;;;;;;5049405;28;20043;-86
2022/07/24 07:34:26;;;;;;;7.15;5.88;;;21.30;98.30;;;;;;5048902;28;20390;-86
2022/07/24 07:36:52;;;;;;;10.35;6.85;;;21.40;98.30;;;;;;5031996;28;20043;-86
2022/07/24 07:39:18;;;;;;;10.50;6.60;;;21.40;98.40;;;;;;5050211;28;20064;-86
2022/07/24 07:41:44;;;;;;;10.20;7.70;;;21.40;98.20;;;;;;5054141;28;20272;-86
2022/07/24 07:44:10;;;;;;;10.25;7.13;;;21.50;98.30;;;;;;5053971;28;20507;-86
2022/07/24 07:46:36;;;;;;;8.88;6.78;;;21.50;98.30;;;;;;5053684;28;20025;-86
2022/07/24 07:49:01;;;;;;;10.75;6.95;;;21.60;98.30;;;;;;5053745;28;20481;-86
2022/07/24 07:51:27;;;;;;;9.48;6.82;;;21.60;98.20;;;;;;5053797;28;20037;-86
2022/07/24 07:53:53;;;;;;;8.90;6.35;;;21.60;98.30;;;;;;5053750;28;20049;-86
2022/07/24 07:56:20;;;;;;;10.45;6.93;;;21.70;98.30;;;;;;5053565;28;20035;-86
2022/07/24 07:58:46;;;;;;;16.95;11.43;;;21.70;98.30;;;;;;5052102;28;20056;-86
2022/07/24 08:01:13;;;;;;;17.10;10.15;;;21.80;98.00;;;;;;5053707;28;20021;-86
2022/07/24 08:03:42;;;;;;;13.80;9.13;;;21.90;97.90;;;;;;5052349;28;20473;-86
2022/07/24 08:06:08;;;;;;;12.15;7.88;;;21.90;98.00;;;;;;5052233;28;20025;-86
2022/07/24 08:08:33;;;;;;;13.60;8.90;;;21.90;98.00;;;;;;5053447;28;20397;-86
2022/07/24 08:10:59;;;;;;;13.82;9.07;;;21.80;98.10;;;;;;5053467;28;20079;-86
2022/07/24 08:13:26;;;;;;;13.15;8.05;;;21.90;98.20;;;;;;5053449;28;20029;-86
2022/07/24 08:15:52;;;;;;;13.45;8.32;;;21.90;98.10;;;;;;5052979;28;20029;-86
2022/07/24 08:18:17;;;;;;;14.18;8.90;;;21.90;98.00;;;;;;5053264;28;20029;-86
2022/07/24 08:20:44;;;;;;;13.38;9.23;;;22.00;97.90;;;;;;5051858;28;20036;-86
2022/07/24 08:23:09;;;;;;;13.40;8.77;;;22.10;98.00;;;;;;5051959;28;20028;-86
2022/07/24 08:25:35;;;;;;;10.98;8.10;;;22.10;97.90;;;;;;5053134;28;20033;-86
2022/07/24 08:28:01;;;;;;;9.88;7.55;;;22.10;97.70;;;;;;5052114;28;20082;-86
2022/07/24 08:30:27;;;;;;;11.70;8.43;;;22.10;97.90;;;;;;5051652;28;20029;-86
2022/07/24 08:32:53;;;;;;;15.48;8.77;;;22.10;97.90;;;;;;5053044;28;20423;-86
2022/07/24 08:35:20;;;;;;;10.55;6.90;;;22.20;98.00;;;;;;5052941;28;20043;-86
2022/07/24 08:37:46;;;;;;;13.43;9.35;;;22.20;97.90;;;;;;5052925;28;20123;-86
2022/07/24 08:40:14;;;;;;;9.77;7.20;;;22.20;97.80;;;;;;5053017;28;20029;-86
2022/07/24 08:42:40;;;;;;;9.43;7.10;;;22.30;97.90;;;;;;5053272;28;20036;-86
2022/07/24 08:45:07;;;;;;;9.60;7.03;;;22.20;97.90;;;;;;5034875;28;20276;-86
2022/07/24 08:47:33;;;;;;;10.18;6.90;;;22.30;98.10;;;;;;5052477;28;20040;-86
2022/07/24 08:49:59;;;;;;;11.50;8.95;;;22.30;98.00;;;;;;5052800;28;20021;-86
2022/07/24 08:52:26;;;;;;;11.88;8.65;;;22.40;98.00;;;;;;5052004;28;20029;-86
2022/07/24 08:54:53;;;;;;;13.75;8.73;;;22.40;97.90;;;;;;5052705;28;20029;-86
2022/07/24 08:57:19;;;;;;;11.00;7.70;;;22.40;97.80;;;;;;5052358;28;20055;-86
2022/07/24 08:59:45;;;;;;;11.70;7.80;;;22.40;97.70;;;;;;5050994;28;20036;-88
2022/07/24 09:02:11;;;;;;;13.38;8.02;;;22.40;97.80;;;;;;5052783;28;20028;-86
2022/07/24 09:04:42;;;;;;;10.82;7.90;;;22.50;97.90;;;;;;5051548;28;20117;-86
2022/07/24 09:07:14;;;;;;;11.90;8.50;;;22.60;97.70;;;;;;5051060;28;20025;-86
2022/07/24 09:09:41;;;;;;;13.20;10.10;;;22.60;97.70;;;;;;5034348;28;20025;-86
2022/07/24 09:12:09;;;;;;;13.70;8.77;;;22.70;97.30;;;;;;5034534;28;20123;-87
2022/07/24 09:14:38;;;;;;;9.93;7.90;;;22.70;97.30;;;;;;5052244;28;20079;-86
2022/07/24 09:17:12;;;;;;;10.40;7.10;;;22.70;97.20;;;;;;5052019;28;20127;-86
2022/07/24 09:19:56;;;;;;;11.85;8.13;;;22.70;97.30;;;;;;5052011;28;20468;-86
2022/07/24 09:22:25;;;;;;;12.20;7.63;;;22.80;97.60;;;;;;5052210;28;20025;-88
2022/07/24 09:25:06;;;;;;;12.55;8.32;;;22.80;97.30;;;;;;5051943;28;20432;-87
2022/07/24 09:27:33;;;;;;;11.40;8.23;;;22.90;97.20;;;;;;5051971;28;20029;-86
2022/07/24 09:30:00;;;;;;;14.07;8.90;;;22.90;97.20;;;;;;5050497;28;20026;-86
2022/07/24 09:32:25;;;;;;;15.38;10.23;;;23.00;96.70;;;;;;5051982;28;20511;-86
2022/07/24 09:34:53;;;;;;;12.02;8.73;;;23.00;96.90;;;;;;5051854;28;20049;-86
2022/07/24 09:37:19;;;;;;;10.98;7.57;;;23.00;97.20;;;;;;5050425;28;20064;-87
2022/07/24 09:39:46;;;;;;;10.82;6.88;;;23.10;96.60;;;;;;5051488;28;20028;-86
2022/07/24 09:42:12;;;;;;;10.65;8.07;;;23.20;96.70;;;;;;5050608;28;20452;-86
2022/07/24 09:44:39;;;;;;;13.43;8.57;;;23.20;96.10;;;;;;5051846;28;20029;-86
2022/07/24 09:47:11;;;;;;;12.10;7.47;;;23.30;95.90;;;;;;5050137;28;20039;-86
2022/07/24 09:49:39;;;;;;;10.30;7.43;;;23.40;95.80;;;;;;5051400;28;20082;-86
2022/07/24 09:52:12;;;;;;;10.05;7.85;;;23.40;95.30;;;;;;5050343;28;20108;-86
2022/07/24 09:54:47;;;;;;;10.02;7.05;;;23.50;95.50;;;;;;5051583;28;20063;-87
2022/07/24 09:57:24;;;;;;;9.20;7.05;;;23.50;95.60;;;;;;5050153;28;20055;-86
2022/07/24 09:59:53;;;;;;;10.30;7.43;;;23.50;95.90;;;;;;5051274;28;20132;-86
2022/07/24 10:02:23;;;;;;;11.02;8.10;;;23.60;95.70;;;;;;5050096;28;20033;-86
2022/07/24 10:04:50;;;;;;;11.80;7.28;;;23.60;95.70;;;;;;5049377;28;20472;-86
2022/07/24 10:07:19;;;;;;;12.90;8.63;;;23.70;95.70;;;;;;5049947;28;20021;-86
2022/07/24 10:09:51;;;;;;;11.48;7.63;;;23.80;95.20;;;;;;5051349;28;20025;-86
2022/07/24 10:12:22;;;;;;;10.60;7.00;;;23.90;94.90;;;;;;5051613;28;20060;-86
2022/07/24 10:14:51;;;;;;;11.30;6.85;;;23.80;94.90;;;;;;5049691;28;20428;-86
2022/07/24 10:17:17;;;;;;;12.38;7.75;;;23.90;95.10;;;;;;5049827;28;20056;-86
2022/07/24 10:19:48;;;;;;;9.93;7.43;;;24.00;94.70;;;;;;5050967;28;20036;-84
2022/07/24 10:22:22;;;;;;;11.88;7.75;;;24.00;94.70;;;;;;5051358;28;20029;-86
2022/07/24 10:25:02;;;;;;;12.27;7.65;;;24.10;94.30;;;;;;5050915;28;20021;-84
2022/07/24 10:27:37;;;;;;;12.60;7.20;;;24.20;94.20;;;;;;5032953;28;20306;-86
2022/07/24 10:30:10;;;;;;;11.05;7.13;;;24.20;94.40;;;;;;5050868;28;20241;-84
2022/07/24 10:32:37;;;;;;;12.23;8.00;;;24.30;94.50;;;;;;5049565;28;20033;-84
2022/07/24 10:35:26;;;;;;;11.18;6.70;;;24.30;93.90;;;;;;5050979;28;20103;-86
2022/07/24 10:38:21;;;;;;;12.00;7.60;;;24.50;93.30;;;;;;5050594;28;20032;-86
2022/07/24 10:40:54;;;;;;;14.73;7.47;;;24.50;93.20;;;;;;5047327;28;20548;-85
2022/07/24 10:43:21;;;;;;;12.15;7.88;;;24.50;93.10;;;;;;5050851;28;20036;-84
2022/07/24 10:46:11;;;;;;;12.45;7.10;;;24.60;93.30;;;;;;5050469;28;20033;-86
2022/07/24 10:48:39;;;;;;;10.27;7.32;;;24.60;93.20;;;;;;5039295;28;20144;-84
2022/07/24 10:51:16;;;;;;;12.50;7.25;;;24.60;93.30;;;;;;5050701;28;20063;-84
2022/07/24 10:53:48;;;;;;;9.98;6.97;;;24.70;93.30;;;;;;5049443;28;20033;-84
2022/07/24 10:56:36;;;;;;;10.82;6.65;;;24.80;92.60;;;;;;5049050;28;20035;-84
2022/07/24 10:59:10;;;;;;;11.27;6.80;;;24.90;92.20;;;;;;5050320;28;20082;-84
2022/07/24 11:01:38;;;;;;;8.98;7.30;;;25.00;92.30;;;;;;5049186;28;20037;-84
2022/07/24 11:04:26;;;;;;;10.15;6.55;;;25.00;92.40;;;;;;5050574;28;20028;-84
2022/07/24 11:06:54;;;;;;;9.10;6.20;;;25.10;92.00;;;;;;5050277;28;20041;-84
2022/07/24 11:09:24;;;;;;;8.05;6.40;;;25.20;91.60;;;;;;5049051;28;20072;-85
2022/07/24 11:11:56;;;;;;;8.20;6.10;;;25.20;91.20;;;;;;5049127;28;20037;-85
2022/07/24 11:14:45;;;;;;;12.13;9.50;;;25.20;91.30;;;;;;5050691;28;20037;-85
2022/07/24 11:17:39;;;;;;;11.75;7.38;;;25.10;91.20;;;;;;5054073;28;20041;-85
2022/07/24 11:20:08;;;;;;;10.88;5.93;;;25.20;91.10;;;;;;5054175;28;20037;-85
2022/07/24 11:22:55;;;;;;;8.13;6.38;;;25.20;90.60;;;;;;5054556;28;20037;-85
2022/07/24 11:25:26;;;;;;;6.38;5.57;;;25.20;90.60;;;;;;5054450;28;20377;-85
2022/07/24 11:28:07;;;;;;;10.07;6.22;;;25.10;90.30;;;;;;5054228;28;20029;-85
2022/07/24 11:30:33;;;;;;;7.85;6.15;;;25.00;90.80;;;;;;5053054;28;20114;-85
2022/07/24 11:32:59;;;;;;;9.10;6.38;;;25.00;91.40;;;;;;5054260;28;20477;-85
2022/07/24 11:35:44;;;;;;;8.68;6.63;;;24.90;91.70;;;;;;5052868;28;20025;-85
2022/07/24 11:38:10;;;;;;;9.48;5.85;;;24.90;91.80;;;;;;5052760;28;20037;-85
2022/07/24 11:40:36;;;;;;;8.68;6.10;;;25.00;91.40;;;;;;5054023;28;20362;-85
2022/07/24 11:43:05;;;;;;;9.77;6.78;;;24.90;91.40;;;;;;5054141;28;20028;-85
2022/07/24 11:45:31;;;;;;;;;;;24.80;91.50;;;;;;5053156;28;20031;-85
2022/07/24 11:47:57;;;;;;;8.68;6.05;;;24.80;91.80;;;;;;5053961;28;19908;-85
2022/07/24 11:50:25;;;;;;;8.00;5.50;;;24.90;91.30;;;;;;5052401;28;20033;-85
2022/07/24 11:52:51;;;;;;;11.02;6.13;;;24.90;91.00;;;;;;5035813;28;20040;-85
2022/07/24 11:55:22;;;;;;;8.18;6.28;;;25.00;90.80;;;;;;5035892;28;20029;-84
2022/07/24 11:57:50;;;;;;;8.70;6.32;;;24.90;91.50;;;;;;5052495;28;20037;-85
2022/07/24 12:00:27;;;;;;;8.43;6.32;;;24.80;91.30;;;;;;5052317;28;20025;-85
2022/07/24 12:02:57;;;;;;;10.55;5.78;;;24.80;91.10;;;;;;5053642;28;20060;-85
2022/07/24 12:05:26;;;;;;;7.93;6.28;;;24.80;90.90;;;;;;5052276;28;20440;-85
2022/07/24 12:07:53;;;;;;;9.20;5.60;;;24.70;91.50;;;;;;5053334;28;20029;-85
2022/07/24 12:10:21;;;;;;;8.18;6.00;;;24.90;91.20;;;;;;5053373;28;20033;-85
2022/07/24 12:12:48;;;;;;;8.32;5.65;;;25.00;90.30;;;;;;5052467;28;20037;-85
2022/07/24 12:18:02;;;;;;;6.88;5.43;;;25.10;90.90;;;;;;5050245;28;20087;-70
2022/07/24 12:20:30;;;;;;;10.88;7.07;;;25.10;90.80;;;;;;5072418;28;20017;-71
2022/07/24 12:22:57;;;;;;;9.17;6.67;;;25.30;90.80;;;;;;5073514;28;20459;-71
2022/07/24 12:25:24;;;;;;;8.48;7.03;;;25.30;90.40;;;;;;5073721;28;20021;-72
2022/07/24 12:27:52;;;;;;;8.23;6.35;;;25.50;90.40;;;;;;5072165;28;20124;-72
2022/07/24 12:30:24;;;;;;;8.75;6.13;;;25.50;90.20;;;;;;5073115;28;20029;-72
2022/07/24 12:33:00;;;;;;;9.82;6.13;;;25.60;90.00;;;;;;5055213;28;20036;-71
2022/07/24 12:35:28;;;;;;;9.35;6.07;;;25.60;90.20;;;;;;5073514;28;20039;-71
2022/07/24 12:37:55;;;;;;;7.38;5.05;;;25.70;89.60;;;;;;5072970;28;20043;-71
2022/07/24 12:40:36;;;;;;;6.70;4.90;;;25.90;87.40;;;;;;5073044;28;20028;-71
2022/07/24 12:43:12;;;;;;;6.47;5.35;;;26.10;86.10;;;;;;5073034;28;20021;-71
2022/07/24 12:45:38;;;;;;;8.35;5.90;;;26.20;86.10;;;;;;5073061;28;20139;-72
2022/07/24 12:48:18;;;;;;;7.32;5.25;;;26.40;85.80;;;;;;5073027;28;20543;-71